createdAt,value
2018-06-21T00:00:09.663Z,101318.70
2018-06-21T00:01:14.543Z,101315.02
2018-06-21T00:02:19.187Z,101312.70
2018-06-21T00:03:23.386Z,101310.20
2018-06-21T00:04:27.741Z,101310.59
2018-06-21T00:05:32.228Z,101306.88
2018-06-21T00:06:36.462Z,101309.28
2018-06-21T00:07:40.766Z,101306.45
2018-06-21T00:08:44.978Z,101306.62
2018-06-21T00:09:49.400Z,101295.55
2018-06-21T00:10:53.683Z,101294.37
2018-06-21T00:11:58.052Z,101292.89
2018-06-21T00:13:02.324Z,101296.28
2018-06-21T00:14:06.555Z,101285.84
2018-06-21T00:15:10.784Z,101283.85
2018-06-21T00:16:15.197Z,101298.41
2018-06-21T00:17:19.387Z,101295.56
2018-06-21T00:18:23.810Z,101294.09
2018-06-21T00:19:28.271Z,101292.06
2018-06-21T00:20:32.784Z,101296.84
2018-06-21T00:22:40.251Z,101288.77
2018-06-21T00:23:44.516Z,101288.47
2018-06-21T00:24:48.710Z,101290.50
2018-06-21T00:25:53.091Z,101291.86
2018-06-21T00:26:57.837Z,101292.54
2018-06-21T00:28:02.212Z,101290.85
2018-06-21T00:29:06.621Z,101297.48
2018-06-21T00:30:11.159Z,101294.66
2018-06-21T00:31:15.725Z,101294.32
2018-06-21T00:32:19.942Z,101290.13
2018-06-21T00:33:24.506Z,101288.44
2018-06-21T00:34:29.167Z,101296.22
2018-06-21T00:35:33.542Z,101296.77
2018-06-21T00:36:38.036Z,101297.95
2018-06-21T00:37:42.339Z,101295.45
2018-06-21T00:38:46.638Z,101296.13
2018-06-21T00:39:50.900Z,101296.67
2018-06-21T00:40:55.161Z,101296.34
2018-06-21T00:41:59.715Z,101291.10
2018-06-21T00:43:04.214Z,101289.11
2018-06-21T00:44:08.554Z,101290.47
2018-06-21T00:45:13.074Z,101287.42
2018-06-21T00:46:17.619Z,101290.84
2018-06-21T00:47:22.060Z,101293.72
2018-06-21T00:48:26.361Z,101289.86
2018-06-21T00:49:30.544Z,101295.58
2018-06-21T00:50:34.858Z,101294.94
2018-06-21T00:51:39.163Z,101295.45
2018-06-21T00:52:43.642Z,101292.95
2018-06-21T00:53:47.914Z,101290.92
2018-06-21T00:54:52.098Z,101293.63
2018-06-21T00:56:17.935Z,101288.09
2018-06-21T00:57:22.364Z,101289.48
2018-06-21T00:58:26.526Z,101282.92
2018-06-21T00:59:30.989Z,101282.92
2018-06-21T01:00:36.194Z,101283.09
2018-06-21T01:01:40.527Z,101280.89
2018-06-21T01:02:45.349Z,101281.61
2018-06-21T01:03:49.734Z,101280.42
2018-06-21T01:04:53.988Z,101281.47
2018-06-21T01:05:58.129Z,101284.17
2018-06-21T01:07:02.439Z,101281.34
2018-06-21T01:08:06.734Z,101279.98
2018-06-21T01:09:10.952Z,101276.95
2018-06-21T01:10:15.385Z,101271.20
2018-06-21T01:11:20.082Z,101266.51
2018-06-21T01:12:24.798Z,101271.58
2018-06-21T01:13:29.102Z,101268.53
2018-06-21T01:14:33.754Z,101267.73
2018-06-21T01:15:38.367Z,101264.86
2018-06-21T01:16:42.905Z,101261.84
2018-06-21T01:17:47.290Z,101255.77
2018-06-21T01:18:51.667Z,101253.78
2018-06-21T01:19:55.860Z,101254.28
2018-06-21T01:21:00.190Z,101253.11
2018-06-21T01:22:04.417Z,101245.70
2018-06-21T01:23:08.794Z,101248.07
2018-06-21T01:24:13.032Z,101247.77
2018-06-21T01:25:17.422Z,101241.66
2018-06-21T01:26:21.957Z,101245.41
2018-06-21T01:27:26.179Z,101239.66
2018-06-21T01:28:30.407Z,101245.78
2018-06-21T01:29:34.705Z,101245.44
2018-06-21T01:30:39.218Z,101238.34
2018-06-21T01:31:43.599Z,101235.84
2018-06-21T01:32:48.010Z,101229.27
2018-06-21T01:33:52.404Z,101227.58
2018-06-21T01:34:56.994Z,101228.79
2018-06-21T01:36:01.329Z,101222.55
2018-06-21T01:37:05.883Z,101221.91
2018-06-21T01:38:10.110Z,101229.67
2018-06-21T01:39:14.555Z,101223.63
2018-06-21T01:40:18.820Z,101219.73
2018-06-21T01:41:23.099Z,101216.19
2018-06-21T01:42:27.354Z,101215.89
2018-06-21T01:43:31.777Z,101210.86
2018-06-21T01:44:36.238Z,101210.52
2018-06-21T01:45:40.580Z,101210.72
2018-06-21T01:46:44.971Z,101206.84
2018-06-21T01:47:49.256Z,101210.55
2018-06-21T01:48:53.436Z,101207.21
2018-06-21T01:49:57.692Z,101206.87
2018-06-21T01:51:02.023Z,101203.87
2018-06-21T01:52:06.760Z,101204.88
2018-06-21T01:53:11.114Z,101200.48
2018-06-21T01:54:15.342Z,101202.85
2018-06-21T01:55:19.786Z,101203.90
2018-06-21T01:56:24.418Z,101201.37
2018-06-21T01:57:28.619Z,101201.88
2018-06-21T01:58:32.771Z,101196.67
2018-06-21T01:59:37.016Z,101199.37
2018-06-21T02:00:41.337Z,101196.84
2018-06-21T02:01:45.778Z,101195.19
2018-06-21T02:02:50.738Z,101196.70
2018-06-21T02:03:55.202Z,101192.85
2018-06-21T02:04:59.434Z,101193.53
2018-06-21T02:06:03.780Z,101192.18
2018-06-21T02:07:08.555Z,101187.48
2018-06-21T02:08:12.897Z,101191.53
2018-06-21T02:09:17.102Z,101187.66
2018-06-21T02:10:21.335Z,101186.50
2018-06-21T02:11:25.733Z,101186.50
2018-06-21T02:12:30.255Z,101185.33
2018-06-21T02:13:34.531Z,101187.69
2018-06-21T02:14:38.798Z,101181.98
2018-06-21T02:15:43.141Z,101186.53
2018-06-21T02:16:47.387Z,101187.04
2018-06-21T02:17:51.616Z,101187.24
2018-06-21T02:18:55.887Z,101183.70
2018-06-21T02:20:00.111Z,101188.59
2018-06-21T02:21:04.730Z,101181.16
2018-06-21T02:22:09.203Z,101187.58
2018-06-21T02:23:13.440Z,101190.27
2018-06-21T02:24:17.810Z,101189.97
2018-06-21T02:25:22.016Z,101184.73
2018-06-21T02:26:26.291Z,101189.63
2018-06-21T02:27:30.711Z,101187.13
2018-06-21T02:28:34.899Z,101189.30
2018-06-21T02:29:39.336Z,101195.73
2018-06-21T02:30:43.730Z,101188.31
2018-06-21T02:31:48.042Z,101192.36
2018-06-21T02:32:52.289Z,101193.70
2018-06-21T02:33:56.720Z,101196.10
2018-06-21T02:35:00.927Z,101191.71
2018-06-21T02:36:05.192Z,101184.62
2018-06-21T02:37:09.381Z,101189.02
2018-06-21T02:38:13.692Z,101187.66
2018-06-21T02:39:18.285Z,101187.02
2018-06-21T02:40:23.822Z,101187.69
2018-06-21T02:41:28.093Z,101185.84
2018-06-21T02:42:32.367Z,101184.31
2018-06-21T02:43:36.633Z,101187.35
2018-06-21T02:44:40.939Z,101189.71
2018-06-21T02:45:45.181Z,101186.67
2018-06-21T02:46:49.415Z,101187.69
2018-06-21T02:47:53.620Z,101190.92
2018-06-21T02:48:57.860Z,101186.70
2018-06-21T02:50:02.464Z,101187.20
2018-06-21T02:51:07.185Z,101190.44
2018-06-21T02:52:11.558Z,101185.55
2018-06-21T02:53:15.838Z,101184.70
2018-06-21T02:54:20.388Z,101180.32
2018-06-21T02:55:24.728Z,101181.36
2018-06-21T02:56:29.354Z,101183.22
2018-06-21T02:57:33.756Z,101188.27
2018-06-21T02:58:38.196Z,101178.99
2018-06-21T02:59:42.504Z,101186.28
2018-06-21T03:00:46.786Z,101187.62
2018-06-21T03:01:51.295Z,101184.25
2018-06-21T03:02:56.247Z,101180.70
2018-06-21T03:04:00.825Z,101178.71
2018-06-21T03:05:05.030Z,101183.77
2018-06-21T03:06:09.314Z,101184.81
2018-06-21T03:07:13.863Z,101183.13
2018-06-21T03:08:18.527Z,101186.83
2018-06-21T03:09:22.775Z,101180.09
2018-06-21T03:10:27.144Z,101185.68
2018-06-21T03:11:31.507Z,101186.35
2018-06-21T03:12:36.348Z,101188.20
2018-06-21T03:13:40.796Z,101187.05
2018-06-21T03:14:45.053Z,101188.06
2018-06-21T03:15:49.388Z,101184.52
2018-06-21T03:16:53.682Z,101177.47
2018-06-21T03:17:57.925Z,101174.43
2018-06-21T03:19:02.078Z,101170.55
2018-06-21T03:20:06.446Z,101169.73
2018-06-21T03:21:10.791Z,101172.09
2018-06-21T03:22:15.071Z,101167.70
2018-06-21T03:23:19.357Z,101167.40
2018-06-21T03:24:23.598Z,101163.02
2018-06-21T03:25:27.891Z,101159.67
2018-06-21T03:26:32.181Z,101158.48
2018-06-21T03:27:36.439Z,101156.80
2018-06-21T03:28:40.735Z,101157.50
2018-06-21T03:29:44.975Z,101157.50
2018-06-21T03:30:49.351Z,101155.30
2018-06-21T03:31:53.707Z,101156.84
2018-06-21T03:32:57.960Z,101162.24
2018-06-21T03:34:02.247Z,101157.35
2018-06-21T03:35:06.521Z,101153.31
2018-06-21T03:36:10.790Z,101154.82
2018-06-21T03:37:15.140Z,101154.31
2018-06-21T03:38:19.577Z,101158.02
2018-06-21T03:39:23.980Z,101156.17
2018-06-21T03:40:28.331Z,101153.83
2018-06-21T03:41:32.798Z,101157.18
2018-06-21T03:42:37.070Z,101153.33
2018-06-21T03:43:41.540Z,101152.32
2018-06-21T03:44:45.967Z,101145.23
2018-06-21T03:45:50.547Z,101150.63
2018-06-21T03:46:54.840Z,101141.20
2018-06-21T03:47:59.126Z,101149.28
2018-06-21T03:49:03.398Z,101154.48
2018-06-21T03:50:07.690Z,101155.02
2018-06-21T03:51:12.013Z,101149.93
2018-06-21T03:52:16.458Z,101153.98
2018-06-21T03:53:20.947Z,101151.78
2018-06-21T03:54:25.369Z,101157.52
2018-06-21T03:55:29.638Z,101159.06
2018-06-21T03:56:34.163Z,101154.31
2018-06-21T03:57:38.660Z,101149.63
2018-06-21T03:58:42.979Z,101149.63
2018-06-21T03:59:47.315Z,101148.08
2018-06-21T04:00:51.849Z,101146.23
2018-06-21T04:01:56.715Z,101145.89
2018-06-21T04:03:01.051Z,101152.63
2018-06-21T04:04:05.261Z,101153.47
2018-06-21T04:05:09.447Z,101151.62
2018-06-21T04:06:13.747Z,101147.91
2018-06-21T04:07:18.054Z,101146.88
2018-06-21T04:08:22.353Z,101153.95
2018-06-21T04:09:27.154Z,101152.95
2018-06-21T04:10:31.335Z,101157.64
2018-06-21T04:11:35.561Z,101154.44
2018-06-21T04:12:40.011Z,101163.17
2018-06-21T04:13:44.231Z,101155.93
2018-06-21T04:14:48.463Z,101158.97
2018-06-21T04:15:52.723Z,101153.91
2018-06-21T04:16:57.114Z,101153.91
2018-06-21T04:18:01.417Z,101160.96
2018-06-21T04:19:05.739Z,101163.16
2018-06-21T04:20:10.315Z,101155.56
2018-06-21T04:21:14.538Z,101158.61
2018-06-21T04:22:18.870Z,101158.95
2018-06-21T04:23:23.096Z,101159.25
2018-06-21T04:24:27.477Z,101159.09
2018-06-21T04:25:31.902Z,101160.77
2018-06-21T04:26:36.338Z,101159.56
2018-06-21T04:27:40.652Z,101162.58
2018-06-21T04:28:44.999Z,101161.39
2018-06-21T04:29:49.263Z,101157.66
2018-06-21T04:30:53.567Z,101152.94
2018-06-21T04:31:57.816Z,101155.78
2018-06-21T04:33:02.904Z,101149.67
2018-06-21T04:34:07.190Z,101154.70
2018-06-21T04:35:11.354Z,101149.65
2018-06-21T04:36:15.618Z,101143.58
2018-06-21T04:37:20.091Z,101141.02
2018-06-21T04:38:24.664Z,101145.55
2018-06-21T04:39:29.018Z,101143.15
2018-06-21T04:40:33.228Z,101150.91
2018-06-21T04:41:37.602Z,101151.42
2018-06-21T04:42:41.872Z,101149.40
2018-06-21T04:43:46.221Z,101144.64
2018-06-21T04:44:50.499Z,101150.89
2018-06-21T04:45:54.795Z,101149.88
2018-06-21T04:46:58.988Z,101150.21
2018-06-21T04:48:03.184Z,101154.06
2018-06-21T04:49:07.323Z,101151.36
2018-06-21T04:50:11.748Z,101146.80
2018-06-21T04:51:16.191Z,101155.75
2018-06-21T04:52:20.427Z,101157.60
2018-06-21T04:53:24.659Z,101163.34
2018-06-21T04:54:28.901Z,101164.86
2018-06-21T04:55:33.464Z,101158.61
2018-06-21T04:56:37.720Z,101156.95
2018-06-21T04:57:41.948Z,101160.67
2018-06-21T04:58:46.172Z,101160.67
2018-06-21T04:59:50.449Z,101163.53
2018-06-21T05:00:54.803Z,101157.33
2018-06-21T05:01:59.018Z,101163.40
2018-06-21T05:03:03.822Z,101162.22
2018-06-21T05:04:08.023Z,101161.54
2018-06-21T05:05:12.300Z,101162.89
2018-06-21T05:06:16.511Z,101168.80
2018-06-21T05:07:20.942Z,101160.39
2018-06-21T05:08:25.139Z,101170.84
2018-06-21T05:09:29.479Z,101174.55
2018-06-21T05:10:33.704Z,101172.22
2018-06-21T05:11:38.045Z,101169.72
2018-06-21T05:12:42.258Z,101169.89
2018-06-21T05:13:46.650Z,101160.11
2018-06-21T05:14:52.393Z,101165.20
2018-06-21T05:15:57.055Z,101155.92
2018-06-21T05:17:01.520Z,101155.92
2018-06-21T05:18:05.852Z,101158.11
2018-06-21T05:19:10.306Z,101162.16
2018-06-21T05:20:14.560Z,101167.55
2018-06-21T05:21:18.772Z,101163.51
2018-06-21T05:22:22.986Z,101163.51
2018-06-21T05:23:27.397Z,101167.55
2018-06-21T05:24:31.792Z,101166.20
2018-06-21T05:25:35.959Z,101169.41
2018-06-21T05:26:40.371Z,101167.55
2018-06-21T05:27:44.604Z,101170.45
2018-06-21T05:28:48.815Z,101167.92
2018-06-21T05:29:53.273Z,101169.44
2018-06-21T05:30:57.546Z,101173.17
2018-06-21T05:32:01.885Z,101171.48
2018-06-21T05:33:06.054Z,101171.48
2018-06-21T05:34:10.323Z,101173.03
2018-06-21T05:35:14.914Z,101170.84
2018-06-21T05:36:19.162Z,101164.27
2018-06-21T05:37:23.451Z,101165.95
2018-06-21T05:38:27.834Z,101169.66
2018-06-21T05:39:32.114Z,101166.11
2018-06-21T05:40:37.628Z,101171.70
2018-06-21T05:41:41.947Z,101172.72
2018-06-21T05:42:46.229Z,101175.08
2018-06-21T05:43:50.459Z,101174.27
2018-06-21T05:44:54.810Z,101172.07
2018-06-21T05:45:59.091Z,101171.73
2018-06-21T05:47:03.350Z,101174.43
2018-06-21T05:48:07.696Z,101173.58
2018-06-21T05:49:11.955Z,101174.09
2018-06-21T05:50:16.332Z,101170.75
2018-06-21T05:51:20.555Z,101174.79
2018-06-21T05:52:25.097Z,101173.30
2018-06-21T05:53:29.295Z,101172.95
2018-06-21T05:54:33.751Z,101174.16
2018-06-21T05:55:38.266Z,101173.83
2018-06-21T05:56:43.391Z,101176.19
2018-06-21T05:57:47.524Z,101176.88
2018-06-21T05:58:51.876Z,101176.73
2018-06-21T05:59:56.087Z,101175.55
2018-06-21T06:01:00.598Z,101185.35
2018-06-21T06:02:04.940Z,101183.02
2018-06-21T06:03:09.554Z,101187.42
2018-06-21T06:04:13.802Z,101183.73
2018-06-21T06:05:18.087Z,101185.24
2018-06-21T06:06:22.385Z,101193.87
2018-06-21T06:07:26.859Z,101182.40
2018-06-21T06:08:31.180Z,101182.40
2018-06-21T06:09:35.358Z,101180.05
2018-06-21T06:10:39.875Z,101185.94
2018-06-21T06:11:44.442Z,101182.73
2018-06-21T06:12:48.656Z,101186.44
2018-06-21T06:13:52.957Z,101187.79
2018-06-21T06:14:58.334Z,101189.84
2018-06-21T06:16:02.683Z,101190.84
2018-06-21T06:17:06.866Z,101187.50
2018-06-21T06:18:11.070Z,101185.47
2018-06-21T06:19:15.278Z,101191.70
2018-06-21T06:20:19.823Z,101200.83
2018-06-21T06:21:24.337Z,101201.48
2018-06-21T06:22:28.586Z,101202.99
2018-06-21T06:23:32.851Z,101202.48
2018-06-21T06:24:37.094Z,101208.56
2018-06-21T06:25:41.222Z,101208.56
2018-06-21T06:26:45.418Z,101205.67
2018-06-21T06:27:49.754Z,101208.38
2018-06-21T06:28:54.242Z,101199.62
2018-06-21T06:29:58.374Z,101201.78
2018-06-21T06:31:02.837Z,101200.97
2018-06-21T06:32:07.218Z,101203.97
2018-06-21T06:33:11.402Z,101206.66
2018-06-21T06:34:15.636Z,101208.16
2018-06-21T06:35:19.954Z,101210.70
2018-06-21T06:36:24.275Z,101220.28
2018-06-21T06:37:28.681Z,101222.47
2018-06-21T06:38:32.911Z,101216.38
2018-06-21T06:39:37.281Z,101216.22
2018-06-21T06:40:41.408Z,101223.45
2018-06-21T06:41:47.065Z,101214.35
2018-06-21T06:42:51.249Z,101216.19
2018-06-21T06:43:55.503Z,101210.09
2018-06-21T06:44:59.805Z,101218.84
2018-06-21T06:46:04.080Z,101220.17
2018-06-21T06:47:08.377Z,101220.31
2018-06-21T06:48:17.285Z,101222.98
2018-06-21T06:49:24.875Z,101229.87
2018-06-21T06:50:35.589Z,101233.06
2018-06-21T06:51:42.510Z,101235.26
2018-06-21T06:52:50.799Z,101236.09
2018-06-21T06:53:57.456Z,101232.39
2018-06-21T06:55:03.579Z,101226.66
2018-06-21T06:56:08.429Z,101229.16
2018-06-21T06:57:13.104Z,101231.19
2018-06-21T06:58:17.523Z,101235.04
2018-06-21T06:59:22.021Z,101235.38
2018-06-21T07:00:26.388Z,101231.67
2018-06-21T07:01:30.965Z,101240.08
2018-06-21T07:02:35.283Z,101236.03
2018-06-21T07:03:39.839Z,101244.97
2018-06-21T07:04:44.130Z,101243.96
2018-06-21T07:05:48.453Z,101240.25
2018-06-21T07:06:53.345Z,101240.05
2018-06-21T07:07:57.929Z,101236.01
2018-06-21T07:09:02.386Z,101236.01
2018-06-21T07:10:06.714Z,101242.25
2018-06-21T07:11:10.974Z,101239.05
2018-06-21T07:12:15.323Z,101239.19
2018-06-21T07:13:19.598Z,101243.37
2018-06-21T07:14:23.862Z,101241.67
2018-06-21T07:15:28.127Z,101246.39
2018-06-21T07:16:32.372Z,101254.16
2018-06-21T07:17:36.796Z,101247.56
2018-06-21T07:18:41.657Z,101247.39
2018-06-21T07:19:46.023Z,101252.09
2018-06-21T07:20:50.370Z,101258.13
2018-06-21T07:21:54.702Z,101248.02
2018-06-21T07:22:58.908Z,101249.84
2018-06-21T07:24:03.375Z,101255.39
2018-06-21T07:25:07.819Z,101256.03
2018-06-21T07:26:12.179Z,101265.80
2018-06-21T07:27:16.356Z,101262.22
2018-06-21T07:28:20.629Z,101265.91
2018-06-21T07:29:25.113Z,101258.79
2018-06-21T07:30:29.807Z,101263.99
2018-06-21T07:31:35.466Z,101274.42
2018-06-21T07:32:39.806Z,101272.41
2018-06-21T07:33:44.659Z,101274.09
2018-06-21T07:34:48.835Z,101272.41
2018-06-21T07:35:53.115Z,101277.47
2018-06-21T07:36:57.487Z,101273.78
2018-06-21T07:38:02.384Z,101280.40
2018-06-21T07:39:08.885Z,101276.20
2018-06-21T07:40:13.291Z,101276.38
2018-06-21T07:41:17.912Z,101284.67
2018-06-21T07:42:22.159Z,101283.66
2018-06-21T07:43:26.468Z,101283.88
2018-06-21T07:44:30.677Z,101290.14
2018-06-21T07:45:34.970Z,101292.95
2018-06-21T07:46:39.255Z,101300.12
2018-06-21T07:47:43.720Z,101300.17
2018-06-21T07:48:47.924Z,101296.89
2018-06-21T07:49:52.167Z,101308.05
2018-06-21T07:50:56.628Z,101308.91
2018-06-21T07:52:01.421Z,101330.64
2018-06-21T07:53:05.819Z,101322.55
2018-06-21T07:54:10.064Z,101325.25
2018-06-21T07:55:14.355Z,101330.15
2018-06-21T07:56:19.017Z,101319.20
2018-06-21T07:57:23.288Z,101320.05
2018-06-21T07:58:27.522Z,101335.69
2018-06-21T07:59:31.715Z,101329.27
2018-06-21T08:00:36.404Z,101341.91
2018-06-21T08:01:40.634Z,101336.66
2018-06-21T08:02:44.858Z,101335.65
2018-06-21T08:03:49.551Z,101346.59
2018-06-21T08:04:53.826Z,101353.14
2018-06-21T08:05:58.134Z,101351.63
2018-06-21T08:07:02.621Z,101354.14
2018-06-21T08:08:07.010Z,101352.98
2018-06-21T08:09:12.644Z,101353.14
2018-06-21T08:10:17.234Z,101354.69
2018-06-21T08:11:21.485Z,101349.09
2018-06-21T08:12:25.698Z,101351.44
2018-06-21T08:13:29.932Z,101356.33
2018-06-21T08:14:34.180Z,101350.08
2018-06-21T08:15:38.513Z,101353.61
2018-06-21T08:16:44.950Z,101361.69
2018-06-21T08:17:49.349Z,101355.76
2018-06-21T08:18:53.608Z,101356.80
2018-06-21T08:19:57.895Z,101361.52
2018-06-21T08:21:02.161Z,101366.75
2018-06-21T08:22:06.828Z,101357.11
2018-06-21T08:23:11.154Z,101364.20
2018-06-21T08:24:15.363Z,101350.36
2018-06-21T08:25:19.630Z,101349.86
2018-06-21T08:26:24.015Z,101353.41
2018-06-21T08:27:28.204Z,101358.80
2018-06-21T08:28:32.597Z,101359.64
2018-06-21T08:29:36.842Z,101361.50
2018-06-21T08:30:41.248Z,101372.13
2018-06-21T08:31:45.939Z,101365.53
2018-06-21T08:32:50.142Z,101370.58
2018-06-21T08:33:54.557Z,101379.66
2018-06-21T08:34:59.101Z,101373.28
2018-06-21T08:36:03.804Z,101379.98
2018-06-21T08:37:08.370Z,101372.56
2018-06-21T08:38:13.081Z,101377.61
2018-06-21T08:39:17.538Z,101378.59
2018-06-21T08:40:21.867Z,101380.80
2018-06-21T08:41:26.735Z,101391.40
2018-06-21T08:42:30.996Z,101401.00
2018-06-21T08:43:35.461Z,101401.70
2018-06-21T08:44:39.656Z,101396.80
2018-06-21T08:45:44.049Z,101401.19
2018-06-21T08:46:48.471Z,101408.95
2018-06-21T08:47:52.696Z,101410.64
2018-06-21T08:48:56.907Z,101413.00
2018-06-21T08:50:01.158Z,101421.30
2018-06-21T08:51:05.553Z,101413.55
2018-06-21T08:52:09.764Z,101421.81
2018-06-21T08:53:14.199Z,101420.61
2018-06-21T08:54:18.440Z,101423.48
2018-06-21T08:55:22.802Z,101413.99
2018-06-21T08:56:27.361Z,101419.38
2018-06-21T08:57:32.054Z,101414.30
2018-06-21T08:58:36.249Z,101422.71
2018-06-21T08:59:40.454Z,101424.75
2018-06-21T09:00:44.841Z,101424.06
2018-06-21T09:01:49.073Z,101433.37
2018-06-21T09:02:53.489Z,101436.42
2018-06-21T09:03:58.336Z,101435.59
2018-06-21T09:05:02.900Z,101431.25
2018-06-21T09:06:07.163Z,101458.77
2018-06-21T09:07:11.540Z,101437.37
2018-06-21T09:08:15.798Z,101443.78
2018-06-21T09:09:20.279Z,101449.00
2018-06-21T09:10:24.558Z,101435.56
2018-06-21T09:11:28.825Z,101447.56
2018-06-21T09:12:36.552Z,101440.82
2018-06-21T09:13:40.801Z,101454.51
2018-06-21T09:14:45.294Z,101457.02
2018-06-21T09:15:49.682Z,101449.27
2018-06-21T09:16:53.904Z,101451.13
2018-06-21T09:17:58.164Z,101449.78
2018-06-21T09:19:02.538Z,101453.97
2018-06-21T09:20:06.805Z,101451.42
2018-06-21T09:21:11.101Z,101454.61
2018-06-21T09:22:15.241Z,101467.24
2018-06-21T09:23:19.623Z,101463.00
2018-06-21T09:24:23.992Z,101456.59
2018-06-21T09:25:28.359Z,101453.55
2018-06-21T09:26:32.838Z,101459.81
2018-06-21T09:27:37.188Z,101463.39
2018-06-21T09:28:41.461Z,101457.31
2018-06-21T09:29:45.688Z,101459.66
2018-06-21T09:30:50.175Z,101468.45
2018-06-21T09:31:54.372Z,101462.40
2018-06-21T09:32:58.579Z,101468.65
2018-06-21T09:34:02.759Z,101471.01
2018-06-21T09:35:07.051Z,101469.16
2018-06-21T09:36:11.276Z,101475.91
2018-06-21T09:37:15.582Z,101477.09
2018-06-21T09:38:25.093Z,101468.81
2018-06-21T09:39:34.840Z,101475.89
2018-06-21T09:40:44.282Z,101476.20
2018-06-21T09:41:53.821Z,101488.35
2018-06-21T09:43:03.294Z,101484.65
2018-06-21T09:44:12.755Z,101476.25
2018-06-21T09:45:22.047Z,101488.04
2018-06-21T09:46:34.490Z,101479.94
2018-06-21T09:47:41.650Z,101484.30
2018-06-21T09:48:51.136Z,101489.70
2018-06-21T09:49:55.507Z,101485.84
2018-06-21T09:51:00.455Z,101486.50
2018-06-21T09:52:05.666Z,101484.16
2018-06-21T09:53:10.000Z,101483.34
2018-06-21T09:54:14.463Z,101482.34
2018-06-21T09:55:19.038Z,101483.34
2018-06-21T09:56:23.183Z,101477.44
2018-06-21T09:57:27.486Z,101482.98
2018-06-21T09:58:32.883Z,101490.70
2018-06-21T09:59:37.380Z,101493.39
2018-06-21T10:00:46.951Z,101491.69
2018-06-21T10:01:51.159Z,101489.69
2018-06-21T10:02:55.528Z,101502.19
2018-06-21T10:03:59.875Z,101497.80
2018-06-21T10:05:04.363Z,101505.08
2018-06-21T10:06:08.567Z,101501.23
2018-06-21T10:07:12.819Z,101510.52
2018-06-21T10:08:17.023Z,101513.72
2018-06-21T10:09:21.210Z,101512.36
2018-06-21T10:10:25.376Z,101510.17
2018-06-21T10:11:29.713Z,101513.72
2018-06-21T10:12:34.246Z,101509.63
2018-06-21T10:13:38.493Z,101497.83
2018-06-21T10:14:42.814Z,101506.09
2018-06-21T10:15:47.105Z,101511.64
2018-06-21T10:16:51.727Z,101503.38
2018-06-21T10:17:59.004Z,101509.28
2018-06-21T10:19:03.416Z,101510.28
2018-06-21T10:20:07.674Z,101515.02
2018-06-21T10:21:12.227Z,101513.17
2018-06-21T10:22:16.490Z,101505.89
2018-06-21T10:23:21.001Z,101514.52
2018-06-21T10:24:25.623Z,101526.13
2018-06-21T10:25:29.946Z,101506.23
2018-06-21T10:26:34.404Z,101518.42
2018-06-21T10:27:38.608Z,101525.16
2018-06-21T10:28:42.954Z,101521.46
2018-06-21T10:29:47.131Z,101520.45
2018-06-21T10:30:51.347Z,101523.50
2018-06-21T10:31:55.606Z,101519.80
2018-06-21T10:32:59.844Z,101517.61
2018-06-21T10:34:04.191Z,101512.71
2018-06-21T10:35:08.868Z,101533.09
2018-06-21T10:36:13.044Z,101522.15
2018-06-21T10:37:17.267Z,101531.59
2018-06-21T10:38:21.539Z,101536.98
2018-06-21T10:39:25.924Z,101538.17
2018-06-21T10:40:30.110Z,101536.30
2018-06-21T10:41:34.324Z,101530.59
2018-06-21T10:42:38.591Z,101557.89
2018-06-21T10:43:43.033Z,101539.84
2018-06-21T10:44:47.198Z,101538.16
2018-06-21T10:45:51.505Z,101540.53
2018-06-21T10:46:55.873Z,101562.61
2018-06-21T10:48:00.072Z,101551.31
2018-06-21T10:49:04.293Z,101557.21
2018-06-21T10:50:08.483Z,101552.50
2018-06-21T10:51:12.680Z,101543.41
2018-06-21T10:52:17.025Z,101548.97
2018-06-21T10:53:21.275Z,101555.02
2018-06-21T10:54:25.773Z,101540.34
2018-06-21T10:55:30.358Z,101542.54
2018-06-21T10:56:34.592Z,101560.92
2018-06-21T10:57:38.812Z,101556.53
2018-06-21T10:58:43.191Z,101558.56
2018-06-21T10:59:47.431Z,101545.27
2018-06-21T11:00:51.658Z,101546.45
2018-06-21T11:01:56.200Z,101545.41
2018-06-21T11:03:00.422Z,101569.70
2018-06-21T11:04:04.998Z,101570.36
2018-06-21T11:05:09.355Z,101572.05
2018-06-21T11:06:13.683Z,101568.70
2018-06-21T11:07:17.850Z,101568.00
2018-06-21T11:08:22.199Z,101569.85
2018-06-21T11:09:26.507Z,101570.88
2018-06-21T11:10:30.766Z,101583.19
2018-06-21T11:11:35.032Z,101564.96
2018-06-21T11:12:39.287Z,101574.41
2018-06-21T11:13:43.562Z,101580.47
2018-06-21T11:14:48.097Z,101592.97
2018-06-21T11:15:52.322Z,101574.73
2018-06-21T11:16:56.885Z,101582.33
2018-06-21T11:18:01.203Z,101581.48
2018-06-21T11:19:05.482Z,101586.19
2018-06-21T11:20:09.690Z,101588.89
2018-06-21T11:21:13.876Z,101574.73
2018-06-21T11:22:18.079Z,101577.94
2018-06-21T11:23:22.253Z,101587.06
2018-06-21T11:24:26.482Z,101585.36
2018-06-21T11:25:30.821Z,101593.12
2018-06-21T11:26:35.410Z,101589.58
2018-06-21T11:27:39.715Z,101599.18
2018-06-21T11:28:44.035Z,101589.92
2018-06-21T11:29:48.331Z,101593.63
2018-06-21T11:30:52.497Z,101601.04
2018-06-21T11:31:56.966Z,101598.50
2018-06-21T11:33:01.206Z,101611.83
2018-06-21T11:34:05.533Z,101619.94
2018-06-21T11:35:09.832Z,101601.70
2018-06-21T11:36:14.098Z,101601.70
2018-06-21T11:37:18.311Z,101603.74
2018-06-21T11:38:22.587Z,101603.05
2018-06-21T11:39:27.099Z,101592.94
2018-06-21T11:40:31.486Z,101588.23
2018-06-21T11:41:35.663Z,101612.84
2018-06-21T11:42:39.871Z,101617.23
2018-06-21T11:43:44.090Z,101615.53
2018-06-21T11:44:48.256Z,101599.19
2018-06-21T11:45:52.511Z,101615.19
2018-06-21T11:46:56.740Z,101600.53
2018-06-21T11:48:01.337Z,101614.03
2018-06-21T11:49:05.933Z,101610.48
2018-06-21T11:50:10.209Z,101615.88
2018-06-21T11:51:14.531Z,101612.17
2018-06-21T11:52:18.845Z,101618.91
2018-06-21T11:53:22.997Z,101608.81
2018-06-21T11:54:27.521Z,101621.97
2018-06-21T11:55:31.828Z,101610.14
2018-06-21T11:56:36.135Z,101613.34
2018-06-21T11:57:40.433Z,101618.59
2018-06-21T11:58:44.830Z,101615.52
2018-06-21T11:59:49.007Z,101617.59
2018-06-21T12:00:53.447Z,101621.27
2018-06-21T12:01:57.712Z,101615.52
2018-06-21T12:03:01.957Z,101611.96
2018-06-21T12:04:06.422Z,101622.61
2018-06-21T12:05:10.544Z,101633.06
2018-06-21T12:06:14.780Z,101624.30
2018-06-21T12:07:19.069Z,101629.02
2018-06-21T12:08:23.307Z,101620.76
2018-06-21T12:09:27.465Z,101627.35
2018-06-21T12:10:31.872Z,101622.61
2018-06-21T12:11:36.289Z,101629.20
2018-06-21T12:12:40.586Z,101628.70
2018-06-21T12:13:44.755Z,101627.85
2018-06-21T12:14:48.982Z,101648.27
2018-06-21T12:15:53.220Z,101636.30
2018-06-21T12:16:57.408Z,101646.59